Time;durP1;ratioP1;P1;durP2;ratioP2;P2;SDS_P1;SDS_P2;PMS_P1;PMS_P2;Temp;Humidity;BMP_temperature;BMP_pressure;BME280_temperature;BME280_humidity;BME280_pressure;Samples;Min_cycle;Max_cycle;Signal;HPM_P1;HPM_P2
2020/12/01 00:01:55;;;;;;;4.00;3.40;;;28.20;64.20;;;;;;5046280;28;20257;-59
2020/12/01 00:04:26;;;;;;;3.45;3.15;;;28.20;64.20;;;;;;5045349;28;20236;-57
2020/12/01 00:06:57;;;;;;;4.28;3.20;;;28.20;64.30;;;;;;5046780;28;20292;-60
2020/12/01 00:09:27;;;;;;;3.35;3.00;;;28.20;64.20;;;;;;5046927;28;20253;-60
2020/12/01 00:11:58;;;;;;;3.85;3.25;;;28.20;64.20;;;;;;5045627;28;20670;-60
2020/12/01 00:14:29;;;;;;;5.57;3.15;;;28.20;64.00;;;;;;5060666;28;20319;-57
2020/12/01 00:17:01;;;;;;;3.15;2.80;;;28.30;64.10;;;;;;5109541;28;20607;-60
2020/12/01 00:19:32;;;;;;;3.13;2.83;;;28.30;64.10;;;;;;5110305;28;20259;-60
2020/12/01 00:22:02;;;;;;;3.15;2.80;;;28.30;63.90;;;;;;5122936;27;20264;-58
2020/12/01 00:24:33;;;;;;;4.25;2.63;;;28.30;63.70;;;;;;5116231;27;20254;-58
2020/12/01 00:27:04;;;;;;;3.55;2.90;;;28.40;64.00;;;;;;5110364;28;20230;-59
2020/12/01 00:29:34;;;;;;;5.25;2.50;;;28.30;63.80;;;;;;5109824;28;20238;-60
2020/12/01 00:32:07;;;;;;;3.20;2.90;;;28.40;63.90;;;;;;5107871;27;20230;-60
2020/12/01 00:34:37;;;;;;;3.50;3.20;;;28.40;63.80;;;;;;5096657;28;20308;-60
2020/12/01 00:37:08;;;;;;;4.35;3.22;;;28.40;63.70;;;;;;5096399;28;20316;-59
2020/12/01 00:39:39;;;;;;;4.18;3.30;;;28.40;63.90;;;;;;5105827;28;20244;-59
2020/12/01 00:42:10;;;;;;;4.40;3.55;;;28.40;63.80;;;;;;5103686;27;20252;-60
2020/12/01 00:44:40;;;;;;;6.00;3.20;;;28.50;63.90;;;;;;5094773;28;20264;-60
2020/12/01 00:47:12;;;;;;;3.38;3.08;;;28.50;64.00;;;;;;5105863;28;20227;-59
2020/12/01 00:49:43;;;;;;;4.30;3.80;;;28.50;64.20;;;;;;5090949;28;20315;-60
2020/12/01 00:52:14;;;;;;;3.75;3.22;;;28.50;64.20;;;;;;5091296;28;20249;-60
2020/12/01 00:54:44;;;;;;;6.20;4.30;;;28.60;64.40;;;;;;5092202;28;20679;-59
2020/12/01 00:57:15;;;;;;;4.70;3.35;;;28.60;64.20;;;;;;5091205;28;20240;-60
2020/12/01 00:59:45;;;;;;;3.65;3.08;;;28.60;64.00;;;;;;5092919;28;20227;-59
2020/12/01 01:02:17;;;;;;;3.95;2.95;;;28.70;63.90;;;;;;5100114;28;20242;-57
2020/12/01 01:04:48;;;;;;;3.70;3.30;;;28.70;63.80;;;;;;5107600;27;20306;-58
2020/12/01 01:07:20;;;;;;;2.95;2.65;;;28.70;63.70;;;;;;5103997;28;20299;-59
2020/12/01 01:09:51;;;;;;;3.50;2.55;;;28.70;63.80;;;;;;5096223;28;20334;-58
2020/12/01 01:12:22;;;;;;;3.85;3.42;;;28.70;63.90;;;;;;5097019;28;20728;-58
2020/12/01 01:14:53;;;;;;;3.42;3.13;;;28.70;63.70;;;;;;5092283;28;20247;-59
2020/12/01 01:17:25;;;;;;;4.90;2.50;;;28.70;63.80;;;;;;5104731;28;20305;-60
2020/12/01 01:19:55;;;;;;;3.25;2.72;;;28.70;64.10;;;;;;5108100;28;20748;-57
2020/12/01 01:22:26;;;;;;;3.97;2.70;;;28.80;64.40;;;;;;5103732;28;20227;-61
2020/12/01 01:24:56;;;;;;;4.25;2.47;;;28.70;64.30;;;;;;5106437;28;20227;-61
2020/12/01 01:27:27;;;;;;;2.40;2.20;;;28.80;64.20;;;;;;5107447;28;20228;-60
2020/12/01 01:29:57;;;;;;;3.53;2.70;;;28.80;64.10;;;;;;5109495;27;20249;-60
2020/12/01 01:32:29;;;;;;;4.43;2.45;;;28.80;64.10;;;;;;5105831;28;20628;-59
2020/12/01 01:35:00;;;;;;;2.95;2.08;;;28.90;64.20;;;;;;5105968;28;20261;-60
2020/12/01 01:37:31;;;;;;;2.65;2.40;;;28.90;64.10;;;;;;5108155;28;20227;-61
2020/12/01 01:40:01;;;;;;;3.92;2.30;;;28.90;63.90;;;;;;5105014;27;20227;-61
2020/12/01 01:42:32;;;;;;;3.25;2.38;;;29.00;63.80;;;;;;5108010;28;20227;-60
2020/12/01 01:45:02;;;;;;;4.03;2.67;;;29.00;63.80;;;;;;5105832;28;20228;-60
2020/12/01 01:47:35;;;;;;;2.50;2.00;;;29.00;63.70;;;;;;5107580;28;20307;-60
2020/12/01 01:50:08;;;;;;;2.53;2.30;;;29.10;63.50;;;;;;5035734;28;20783;-60
2020/12/01 01:52:39;;;;;;;2.75;2.42;;;29.10;63.50;;;;;;4947329;28;20237;-60
2020/12/01 01:55:12;;;;;;;2.50;2.30;;;29.10;63.70;;;;;;4946523;28;20703;-58
2020/12/01 01:57:43;;;;;;;2.50;2.30;;;29.10;63.70;;;;;;4951219;28;20244;-59
2020/12/01 02:00:29;;;;;;;3.20;2.72;;;29.10;63.50;;;;;;4949680;28;20734;-60
2020/12/01 02:03:01;;;;;;;3.22;2.50;;;29.20;63.30;;;;;;4942933;28;20360;-60
2020/12/01 02:05:34;;;;;;;5.68;3.20;;;29.20;63.20;;;;;;4946868;28;20246;-60
2020/12/01 02:08:04;;;;;;;2.92;2.60;;;29.20;63.10;;;;;;4942173;28;20228;-60
2020/12/01 02:10:35;;;;;;;3.17;2.60;;;29.20;62.80;;;;;;4943223;28;20752;-60
2020/12/01 02:13:06;;;;;;;2.92;2.63;;;29.20;62.90;;;;;;4944431;28;20324;-61
2020/12/01 02:15:37;;;;;;;5.43;2.90;;;29.30;63.10;;;;;;4945422;28;20236;-60
2020/12/01 02:18:10;;;;;;;3.75;2.95;;;29.30;63.00;;;;;;4974460;28;20240;-58
2020/12/01 02:20:40;;;;;;;3.25;2.65;;;29.30;62.90;;;;;;4997922;28;20234;-58
2020/12/01 02:23:11;;;;;;;4.55;2.95;;;29.30;62.90;;;;;;5062015;28;20326;-60
2020/12/01 02:25:42;;;;;;;4.60;3.20;;;29.30;62.80;;;;;;5085036;28;20646;-59
2020/12/01 02:28:13;;;;;;;3.33;2.70;;;29.40;62.90;;;;;;5074007;28;20228;-60
2020/12/01 02:30:44;;;;;;;4.07;3.03;;;29.40;62.80;;;;;;5075574;28;20214;-59
2020/12/01 02:33:14;;;;;;;3.70;2.97;;;29.40;62.80;;;;;;5075234;28;20597;-60
2020/12/01 02:35:45;;;;;;;3.40;2.58;;;29.50;62.80;;;;;;5098712;28;20219;-60
2020/12/01 02:38:16;;;;;;;3.63;2.90;;;29.50;63.20;;;;;;5089522;28;20228;-60
2020/12/01 02:40:47;;;;;;;3.85;2.95;;;29.50;63.00;;;;;;5081289;28;20308;-60
2020/12/01 02:43:18;;;;;;;5.00;2.97;;;29.50;63.70;;;;;;5085693;28;22211;-60
2020/12/01 02:45:49;;;;;;;4.43;3.30;;;29.60;62.70;;;;;;5087464;27;20293;-57
2020/12/01 02:48:20;;;;;;;5.00;3.83;;;29.60;62.70;;;;;;5089078;28;20228;-57
2020/12/01 02:50:51;;;;;;;5.63;3.03;;;29.60;62.50;;;;;;5079678;28;20228;-58
2020/12/01 02:53:22;;;;;;;4.82;3.25;;;29.70;62.50;;;;;;5075915;28;20303;-59
2020/12/01 02:55:52;;;;;;;4.55;3.10;;;29.70;62.80;;;;;;5085725;28;20603;-59
2020/12/01 02:58:24;;;;;;;4.65;3.63;;;29.70;62.80;;;;;;5082462;28;20275;-60
2020/12/01 03:00:55;;;;;;;8.23;3.97;;;29.80;62.40;;;;;;5082139;28;20257;-59
2020/12/01 03:03:25;;;;;;;4.18;3.75;;;29.80;62.40;;;;;;5088080;28;21113;-59
2020/12/01 03:05:56;;;;;;;3.60;3.30;;;29.90;62.50;;;;;;5080097;28;20965;-58
2020/12/01 03:08:27;;;;;;;4.97;3.63;;;29.90;62.80;;;;;;5097128;28;20302;-59
2020/12/01 03:10:57;;;;;;;3.10;2.80;;;30.00;63.00;;;;;;5087383;28;20221;-60
2020/12/01 03:13:30;;;;;;;3.50;3.20;;;30.00;62.30;;;;;;5107884;28;20577;-60
2020/12/01 03:16:04;;;;;;;3.45;2.65;;;30.00;62.00;;;;;;5102525;27;20224;-59
2020/12/01 03:18:38;;;;;;;3.10;2.80;;;30.10;61.70;;;;;;5107168;27;20246;-60
2020/12/01 03:21:09;;;;;;;4.32;2.95;;;30.20;61.40;;;;;;5104921;28;20223;-60
2020/12/01 03:23:39;;;;;;;3.47;2.72;;;30.20;61.10;;;;;;5104858;28;20256;-60
2020/12/01 03:26:10;;;;;;;2.90;2.45;;;30.20;61.00;;;;;;5105398;28;20236;-57
2020/12/01 03:28:42;;;;;;;3.45;3.10;;;30.40;61.00;;;;;;5038998;28;20271;-59
2020/12/01 03:31:12;;;;;;;4.45;2.95;;;30.40;60.50;;;;;;5046902;28;20257;-58
2020/12/01 03:33:43;;;;;;;3.05;2.42;;;30.50;60.70;;;;;;5044053;28;20234;-57
2020/12/01 03:36:14;;;;;;;4.38;2.78;;;30.50;61.00;;;;;;5040164;28;20233;-55
2020/12/01 03:38:45;;;;;;;2.88;2.50;;;30.50;60.90;;;;;;5034886;28;20743;-56
2020/12/01 03:41:15;;;;;;;4.53;3.22;;;30.60;60.40;;;;;;5035372;28;20227;-53
2020/12/01 03:43:47;;;;;;;3.38;3.00;;;30.70;59.80;;;;;;5034783;28;20257;-58
2020/12/01 03:46:18;;;;;;;3.65;3.00;;;30.80;59.60;;;;;;5038124;28;20228;-56
2020/12/01 03:48:48;;;;;;;3.30;3.00;;;30.80;59.60;;;;;;5035232;28;20242;-56
2020/12/01 03:51:19;;;;;;;3.00;2.70;;;30.90;59.30;;;;;;5035393;28;20237;-55
2020/12/01 03:53:49;;;;;;;3.92;2.83;;;30.90;59.10;;;;;;5040007;28;20235;-57
2020/12/01 03:56:20;;;;;;;3.58;2.88;;;31.00;59.30;;;;;;5039062;28;20229;-57
2020/12/01 03:58:52;;;;;;;4.90;2.92;;;31.00;59.50;;;;;;5043008;28;20604;-55
2020/12/01 04:01:23;;;;;;;3.33;2.88;;;31.00;59.20;;;;;;5097351;28;20237;-57
2020/12/01 04:03:54;;;;;;;3.92;2.72;;;31.10;59.00;;;;;;5108179;27;20227;-55
2020/12/01 04:06:24;;;;;;;3.50;3.20;;;31.10;58.80;;;;;;5102848;28;20273;-57
2020/12/01 04:08:55;;;;;;;3.60;3.30;;;31.20;58.40;;;;;;5101976;28;20354;-54
2020/12/01 04:11:26;;;;;;;3.55;3.25;;;31.20;58.20;;;;;;5102533;28;20228;-57
2020/12/01 04:13:58;;;;;;;2.90;2.63;;;31.20;58.10;;;;;;5101190;27;20675;-55
2020/12/01 04:16:30;;;;;;;5.45;3.13;;;31.20;58.30;;;;;;5100007;27;20224;-56
2020/12/01 04:19:01;;;;;;;4.57;3.20;;;31.20;58.40;;;;;;5105137;27;20231;-56
2020/12/01 04:21:31;;;;;;;4.30;2.85;;;31.20;58.40;;;;;;5101229;27;20236;-56
2020/12/01 04:24:02;;;;;;;2.88;2.58;;;31.30;58.50;;;;;;5101814;28;20288;-53
2020/12/01 04:26:33;;;;;;;2.45;2.25;;;31.30;58.50;;;;;;5102125;28;20251;-56
2020/12/01 04:29:05;;;;;;;4.07;2.47;;;31.30;58.60;;;;;;5106924;27;20243;-59
2020/12/01 04:31:35;;;;;;;4.90;2.88;;;31.30;58.20;;;;;;5106321;27;20306;-57
2020/12/01 04:34:06;;;;;;;3.30;2.90;;;31.40;57.80;;;;;;5101692;28;20233;-66
2020/12/01 04:36:37;;;;;;;4.70;3.15;;;31.40;57.70;;;;;;5107709;27;20682;-62
2020/12/01 04:39:08;;;;;;;3.90;2.80;;;31.30;58.10;;;;;;5098570;27;20247;-51
2020/12/01 04:41:39;;;;;;;4.90;3.35;;;31.40;57.70;;;;;;5109395;27;20690;-51
2020/12/01 04:44:17;;;;;;;7.68;4.80;;;31.30;57.80;;;;;;5104881;27;20675;-56
2020/12/01 04:46:48;;;;;;;3.63;3.33;;;31.40;57.90;;;;;;5103652;27;20231;-57
2020/12/01 04:49:23;;;;;;;3.42;3.13;;;31.40;58.00;;;;;;5103637;27;20240;-56
2020/12/01 04:52:24;;;;;;;3.28;2.40;;;31.40;57.80;;;;;;5100888;28;20246;-58
2020/12/01 04:55:08;;;;;;;4.20;2.38;;;31.40;58.20;;;;;;5061998;28;20232;-54
2020/12/01 04:58:08;;;;;;;4.43;2.72;;;31.50;58.00;;;;;;5029425;28;20687;-56
2020/12/01 05:00:43;;;;;;;2.80;2.47;;;31.60;57.70;;;;;;5026042;28;20234;-56
2020/12/01 05:03:27;;;;;;;2.13;1.92;;;31.60;57.40;;;;;;5018103;28;20610;-55
2020/12/01 05:06:21;;;;;;;2.58;2.38;;;31.60;57.90;;;;;;4968440;28;20237;-55
2020/12/01 05:08:56;;;;;;;2.65;2.38;;;31.60;57.90;;;;;;4973213;28;20244;-55
2020/12/01 05:11:43;;;;;;;2.83;2.50;;;31.70;58.20;;;;;;4984305;28;20235;-57
2020/12/01 05:14:17;;;;;;;4.38;2.42;;;31.70;58.30;;;;;;4925244;29;20293;-56
2020/12/01 05:16:52;;;;;;;3.63;2.20;;;31.80;57.80;;;;;;4926923;29;20622;-56
2020/12/01 05:19:45;;;;;;;2.05;1.95;;;31.90;57.80;;;;;;4934099;28;20767;-57
2020/12/01 05:22:16;;;;;;;3.33;2.60;;;32.00;57.40;;;;;;4976074;28;20234;-57
2020/12/01 05:24:48;;;;;;;4.40;2.25;;;32.10;57.40;;;;;;5000105;28;20239;-57
2020/12/01 05:27:26;;;;;;;2.25;2.05;;;32.20;57.50;;;;;;4998815;28;20239;-54
2020/12/01 05:30:02;;;;;;;4.55;2.50;;;32.20;57.50;;;;;;5011931;28;20313;-58
2020/12/01 05:32:39;;;;;;;2.60;2.00;;;32.30;57.30;;;;;;5068242;28;20220;-53
2020/12/01 05:35:16;;;;;;;3.13;2.75;;;32.40;57.30;;;;;;5082414;28;20229;-55
2020/12/01 05:37:57;;;;;;;2.97;2.50;;;32.50;56.60;;;;;;5082743;28;20251;-58
2020/12/01 05:40:28;;;;;;;3.83;2.40;;;32.50;56.20;;;;;;5077497;28;20290;-58
2020/12/01 05:42:59;;;;;;;2.60;2.00;;;32.50;55.90;;;;;;5082250;28;20232;-56
2020/12/01 05:45:35;;;;;;;3.03;2.10;;;32.50;55.70;;;;;;5076205;28;20232;-59
2020/12/01 05:48:37;;;;;;;2.33;2.00;;;32.50;55.40;;;;;;5080520;28;20318;-55
2020/12/01 05:51:09;;;;;;;2.10;1.90;;;32.50;55.40;;;;;;5082529;28;20231;-58
2020/12/01 05:53:39;;;;;;;2.90;2.10;;;32.50;55.40;;;;;;5018675;28;20235;-56
2020/12/01 05:56:17;;;;;;;2.47;2.25;;;32.50;55.50;;;;;;4987924;28;20257;-56
2020/12/01 05:58:50;;;;;;;2.50;2.30;;;32.50;55.60;;;;;;4987050;28;20326;-54
2020/12/01 06:01:20;;;;;;;4.80;2.30;;;32.50;56.00;;;;;;4943347;28;20596;-58
2020/12/01 06:04:07;;;;;;;2.97;2.30;;;32.50;56.00;;;;;;4945612;28;20229;-57
2020/12/01 06:07:07;;;;;;;2.95;2.15;;;32.50;55.80;;;;;;4938268;28;20248;-58
2020/12/01 06:10:10;;;;;;;2.30;2.10;;;32.50;55.80;;;;;;4886966;29;20267;-58
2020/12/01 06:13:03;;;;;;;2.60;2.40;;;32.50;55.70;;;;;;4847022;29;20241;-56
2020/12/01 06:15:34;;;;;;;2.83;2.60;;;32.60;56.00;;;;;;4845315;29;20319;-56
2020/12/01 06:18:06;;;;;;;4.00;2.30;;;32.60;55.70;;;;;;4840133;29;20293;-54
2020/12/01 06:20:41;;;;;;;2.65;2.40;;;32.70;56.10;;;;;;4861972;29;20287;-59
2020/12/01 06:23:51;;;;;;;2.65;2.45;;;32.70;56.40;;;;;;4865688;29;20676;-54
2020/12/01 06:26:47;;;;;;;2.80;2.53;;;32.80;56.20;;;;;;4927420;28;20224;-56
2020/12/01 06:29:46;;;;;;;2.90;2.70;;;32.90;56.10;;;;;;4960115;28;20239;-58
2020/12/01 06:32:45;;;;;;;4.22;2.83;;;32.90;55.90;;;;;;4945526;28;20613;-59
2020/12/01 06:35:45;;;;;;;2.88;2.63;;;33.10;55.70;;;;;;4981330;28;20227;-59
2020/12/01 06:38:27;;;;;;;3.83;2.90;;;33.10;55.50;;;;;;5008168;28;20645;-59
2020/12/01 06:41:01;;;;;;;3.33;2.47;;;33.10;55.00;;;;;;4985661;28;20277;-58
2020/12/01 06:43:38;;;;;;;3.03;2.83;;;33.10;55.40;;;;;;4995434;28;20243;-56
2020/12/01 06:46:24;;;;;;;5.47;4.20;;;33.10;55.40;;;;;;4987501;28;20239;-57
2020/12/01 06:48:54;;;;;;;4.82;4.20;;;33.20;55.30;;;;;;4984411;28;20230;-55
2020/12/01 06:51:24;;;;;;;5.20;4.35;;;33.20;55.00;;;;;;4933379;28;20253;-59
2020/12/01 06:54:05;;;;;;;4.05;3.72;;;33.20;54.80;;;;;;4952811;28;20264;-59
2020/12/01 06:56:35;;;;;;;4.35;3.78;;;33.20;54.90;;;;;;4956941;28;20240;-59
2020/12/01 06:59:08;;;;;;;4.53;4.10;;;33.10;54.70;;;;;;4954826;28;20231;-58
2020/12/01 07:01:39;;;;;;;3.85;3.30;;;33.10;54.90;;;;;;4985791;28;20227;-57
2020/12/01 07:04:32;;;;;;;3.85;3.53;;;33.00;54.90;;;;;;4981709;28;20354;-58
2020/12/01 07:07:04;;;;;;;3.72;3.17;;;33.00;55.40;;;;;;5044690;28;20237;-62
2020/12/01 07:09:47;;;;;;;3.80;3.50;;;33.00;55.20;;;;;;5046338;28;20249;-63
2020/12/01 07:12:44;;;;;;;4.22;3.15;;;33.00;55.30;;;;;;5049618;28;20232;-62
2020/12/01 07:15:16;;;;;;;3.67;3.38;;;33.10;55.60;;;;;;5060712;28;20234;-60
2020/12/01 07:17:52;;;;;;;3.40;3.10;;;33.00;55.40;;;;;;5096056;27;20232;-61
2020/12/01 07:20:39;;;;;;;3.05;2.85;;;33.10;55.40;;;;;;5096836;27;20224;-61
2020/12/01 07:23:29;;;;;;;3.28;2.97;;;33.10;55.60;;;;;;5105607;27;20679;-62
2020/12/01 07:26:20;;;;;;;4.15;2.90;;;33.10;55.90;;;;;;5105529;27;20228;-63
2020/12/01 07:29:26;;;;;;;3.70;3.30;;;33.20;55.50;;;;;;5103986;27;20216;-63
2020/12/01 07:32:06;;;;;;;3.72;3.15;;;33.20;55.40;;;;;;5084918;27;20234;-62
2020/12/01 07:34:37;;;;;;;4.95;3.80;;;33.30;55.10;;;;;;5105527;27;20742;-61
2020/12/01 07:37:33;;;;;;;5.22;3.47;;;33.30;54.90;;;;;;5105249;27;20224;-62
2020/12/01 07:40:07;;;;;;;4.88;3.58;;;33.30;55.10;;;;;;5105261;27;20232;-62
2020/12/01 07:42:39;;;;;;;3.58;3.28;;;33.30;55.00;;;;;;5105246;27;20258;-62
2020/12/01 07:45:17;;;;;;;3.85;3.55;;;33.30;55.20;;;;;;5105514;27;20236;-62
2020/12/01 07:47:55;;;;;;;4.18;3.80;;;33.30;55.20;;;;;;5105308;27;20356;-62
2020/12/01 07:50:26;;;;;;;4.55;3.50;;;33.30;55.00;;;;;;5104247;27;20722;-62
2020/12/01 07:52:59;;;;;;;3.63;3.17;;;33.30;55.40;;;;;;5105445;27;20236;-63
2020/12/01 07:55:36;;;;;;;3.85;3.55;;;33.30;55.40;;;;;;5105245;27;20895;-62
2020/12/01 07:58:15;;;;;;;4.40;4.03;;;33.30;55.40;;;;;;5105419;27;20326;-61
2020/12/01 08:00:52;;;;;;;4.47;4.10;;;33.40;55.40;;;;;;5104404;27;20338;-62
2020/12/01 08:03:23;;;;;;;5.45;4.95;;;33.40;55.70;;;;;;5102585;27;20235;-60
2020/12/01 08:05:54;;;;;;;5.57;5.18;;;33.40;54.90;;;;;;5105847;27;20235;-62
2020/12/01 08:08:24;;;;;;;6.30;5.68;;;33.40;55.10;;;;;;5104405;27;20598;-63
2020/12/01 08:10:55;;;;;;;6.43;5.72;;;33.50;54.90;;;;;;5101713;27;20228;-62
2020/12/01 08:13:25;;;;;;;5.93;5.43;;;33.50;54.90;;;;;;5047151;28;20276;-62
2020/12/01 08:16:01;;;;;;;6.50;5.68;;;33.60;55.00;;;;;;5042912;28;20226;-62
2020/12/01 08:18:32;;;;;;;5.35;4.85;;;33.60;54.80;;;;;;5048442;28;20229;-62
2020/12/01 08:21:04;;;;;;;5.47;4.97;;;33.70;54.80;;;;;;5053925;28;20347;-62
2020/12/01 08:23:35;;;;;;;5.45;4.93;;;33.70;55.20;;;;;;5046299;28;20592;-63
2020/12/01 08:26:07;;;;;;;4.30;3.90;;;33.70;55.20;;;;;;5048585;28;21051;-62
2020/12/01 08:28:39;;;;;;;4.45;3.28;;;33.80;55.00;;;;;;5050176;28;20666;-62
2020/12/01 08:31:12;;;;;;;3.20;2.90;;;33.80;54.70;;;;;;5003143;28;20239;-61
2020/12/01 08:34:09;;;;;;;3.47;3.15;;;33.80;54.40;;;;;;5009719;28;20227;-62
2020/12/01 08:37:03;;;;;;;3.33;2.38;;;33.80;54.20;;;;;;5005693;28;20249;-62
2020/12/01 08:39:55;;;;;;;2.83;2.58;;;33.80;54.10;;;;;;5046890;28;20631;-62
2020/12/01 08:42:50;;;;;;;3.20;2.90;;;33.90;54.10;;;;;;5036741;28;20248;-62
2020/12/01 08:45:42;;;;;;;3.55;3.00;;;33.90;54.00;;;;;;5056112;28;20229;-62
2020/12/01 08:48:32;;;;;;;2.72;2.53;;;33.90;53.70;;;;;;4995065;28;20758;-61
2020/12/01 08:51:06;;;;;;;7.57;2.67;;;33.90;53.50;;;;;;4984348;28;21011;-62
2020/12/01 08:53:47;;;;;;;3.15;2.75;;;33.90;53.90;;;;;;4976373;28;20240;-62
2020/12/01 08:56:41;;;;;;;3.45;2.67;;;33.90;53.90;;;;;;4992866;28;20240;-62
2020/12/01 08:59:12;;;;;;;3.22;2.80;;;33.90;53.90;;;;;;4991705;28;20223;-62
2020/12/01 09:01:43;;;;;;;2.47;2.28;;;33.90;53.80;;;;;;4973492;28;20239;-62
2020/12/01 09:04:25;;;;;;;3.08;2.78;;;33.90;53.90;;;;;;5006742;28;20329;-63
2020/12/01 09:07:05;;;;;;;3.13;2.90;;;33.90;54.00;;;;;;5013676;28;20235;-62
2020/12/01 09:09:36;;;;;;;3.42;3.10;;;33.90;54.10;;;;;;4985464;28;20310;-62
2020/12/01 09:12:21;;;;;;;3.20;2.97;;;33.90;54.20;;;;;;5002967;28;20218;-62
2020/12/01 09:15:06;;;;;;;2.75;2.55;;;33.80;54.20;;;;;;5043641;28;20234;-62
2020/12/01 09:17:47;;;;;;;3.47;3.10;;;33.80;54.10;;;;;;5046982;28;20271;-61
2020/12/01 09:23:21;;;;;;;3.88;2.70;;;33.80;54.50;;;;;;5001092;28;20252;-61
2020/12/01 09:25:51;;;;;;;3.88;2.78;;;33.80;54.60;;;;;;5042443;28;20240;-61
2020/12/01 09:28:22;;;;;;;3.03;2.67;;;33.80;54.80;;;;;;5045282;28;20326;-61
2020/12/01 09:30:53;;;;;;;4.43;2.75;;;33.80;54.90;;;;;;5045777;28;20701;-61
2020/12/01 09:33:24;;;;;;;2.85;2.65;;;33.80;55.00;;;;;;5070529;28;20236;-60
2020/12/01 09:35:56;;;;;;;3.25;3.00;;;33.90;55.10;;;;;;5086648;28;20311;-60
2020/12/01 09:38:26;;;;;;;6.30;2.95;;;34.00;54.90;;;;;;5105239;28;20646;-59
2020/12/01 09:40:56;;;;;;;3.58;3.28;;;34.00;54.90;;;;;;5090298;27;20232;-59
2020/12/01 09:43:31;;;;;;;3.05;2.75;;;34.00;54.70;;;;;;5106642;28;20240;-59
2020/12/01 09:46:06;;;;;;;2.67;2.47;;;34.10;54.60;;;;;;5109043;28;20227;-61
2020/12/01 09:48:39;;;;;;;3.40;2.95;;;34.10;54.30;;;;;;5103613;28;20608;-60
2020/12/01 09:51:12;;;;;;;3.00;2.80;;;34.10;54.30;;;;;;5114748;27;20283;-61
2020/12/01 09:56:40;;;;;;;3.55;3.25;;;34.10;54.10;;;;;;5106374;27;20745;-60
2020/12/01 10:05:10;;;;;;;3.17;2.95;;;34.20;54.90;;;;;;5086041;28;20255;-58
2020/12/01 10:10:39;;;;;;;3.63;2.60;;;34.80;54.60;;;;;;5092886;27;20582;-61
2020/12/01 10:13:27;;;;;;;2.67;2.45;;;35.20;54.40;;;;;;5086658;28;20247;-60
2020/12/01 10:35:27;;;;;;;2.83;2.60;;;37.50;49.40;;;;;;5096065;28;20231;-61
2020/12/01 10:37:59;;;;;;;2.53;2.33;;;37.30;48.50;;;;;;5098655;28;20700;-62
2020/12/01 10:40:30;;;;;;;6.78;2.17;;;37.10;48.50;;;;;;5094409;28;20221;-62
2020/12/01 10:43:01;;;;;;;4.07;2.40;;;36.80;48.50;;;;;;5106395;27;20383;-60
2020/12/01 10:45:31;;;;;;;2.97;2.17;;;36.50;48.70;;;;;;5095691;28;20224;-61
2020/12/01 10:48:19;;;;;;;2.10;1.90;;;36.20;48.90;;;;;;5094928;28;20632;-62
2020/12/01 10:50:49;;;;;;;4.05;3.65;;;35.90;49.40;;;;;;5090273;28;20593;-62
2020/12/01 10:53:20;;;;;;;4.70;3.78;;;35.60;49.60;;;;;;5092771;27;20598;-63
2020/12/01 10:55:52;;;;;;;2.63;2.42;;;35.30;50.00;;;;;;5104670;27;20280;-62
2020/12/01 10:58:23;;;;;;;3.28;2.97;;;35.00;50.30;;;;;;5107563;27;20236;-62
2020/12/01 11:00:53;;;;;;;2.60;2.40;;;34.80;50.70;;;;;;5124008;27;20322;-62
2020/12/01 11:03:25;;;;;;;3.75;2.53;;;34.50;50.90;;;;;;5100525;28;20789;-59
2020/12/01 11:05:55;;;;;;;2.60;2.40;;;34.30;51.30;;;;;;5095045;28;20243;-60
2020/12/01 11:08:26;;;;;;;2.97;2.70;;;34.10;51.60;;;;;;5101916;28;20761;-60
2020/12/01 11:10:58;;;;;;;2.80;2.60;;;33.90;51.90;;;;;;5103387;28;20224;-61
2020/12/01 11:13:29;;;;;;;2.63;2.42;;;33.70;52.10;;;;;;5096174;28;20315;-60
2020/12/01 11:16:00;;;;;;;2.83;2.60;;;33.50;52.40;;;;;;5101337;28;20230;-62
2020/12/01 11:18:31;;;;;;;3.13;2.83;;;33.40;52.80;;;;;;5094246;28;20502;-61
2020/12/01 11:21:02;;;;;;;6.35;2.60;;;33.30;53.20;;;;;;5104096;27;20232;-61
2020/12/01 11:23:33;;;;;;;3.65;2.95;;;33.10;53.30;;;;;;5111210;27;20235;-61
2020/12/01 11:26:06;;;;;;;3.13;2.83;;;33.00;53.60;;;;;;5119278;27;20939;-61
2020/12/01 11:28:36;;;;;;;3.20;2.90;;;32.90;53.90;;;;;;5091643;28;20608;-60
2020/12/01 11:31:07;;;;;;;4.07;3.42;;;32.80;54.10;;;;;;5098131;27;20228;-62
2020/12/01 11:33:45;;;;;;;4.18;3.15;;;32.70;54.30;;;;;;5103942;27;20220;-62
2020/12/01 11:36:16;;;;;;;4.32;2.85;;;32.70;54.50;;;;;;5119704;27;20310;-61
2020/12/01 11:38:47;;;;;;;3.33;2.95;;;32.60;54.70;;;;;;5098575;28;20274;-62
2020/12/01 11:41:19;;;;;;;4.07;3.20;;;32.50;54.80;;;;;;5099034;28;20240;-61
2020/12/01 11:43:50;;;;;;;3.03;2.83;;;32.40;55.00;;;;;;5094737;28;20236;-61
2020/12/01 11:46:20;;;;;;;5.22;3.60;;;32.30;55.10;;;;;;5094331;28;20250;-60
2020/12/01 11:48:50;;;;;;;4.45;3.33;;;32.30;55.40;;;;;;5102685;27;20233;-61
2020/12/01 11:51:21;;;;;;;3.63;3.33;;;32.20;55.50;;;;;;5095630;28;20220;-60
2020/12/01 11:53:51;;;;;;;4.13;3.65;;;32.20;55.70;;;;;;5098416;28;20266;-61
2020/12/01 11:56:23;;;;;;;4.05;3.63;;;32.10;55.80;;;;;;5103980;28;20246;-59
2020/12/01 11:58:54;;;;;;;4.47;3.72;;;32.10;56.10;;;;;;5103247;27;20227;-64
2020/12/01 12:01:25;;;;;;;4.18;3.53;;;32.00;56.10;;;;;;5107467;28;20234;-62
2020/12/01 12:03:55;;;;;;;3.60;3.30;;;31.90;56.40;;;;;;5104999;27;20224;-60
2020/12/01 12:06:26;;;;;;;5.57;3.30;;;31.90;56.50;;;;;;5103615;27;20289;-63
2020/12/01 12:08:56;;;;;;;5.13;3.75;;;31.80;56.60;;;;;;5099158;27;20235;-62
2020/12/01 12:11:28;;;;;;;3.95;3.65;;;31.80;56.80;;;;;;5102116;27;20238;-60
2020/12/01 12:13:59;;;;;;;3.38;3.05;;;31.80;57.00;;;;;;5102670;28;20231;-61
2020/12/01 12:16:30;;;;;;;4.30;3.50;;;31.70;57.00;;;;;;5099133;28;20236;-63
2020/12/01 12:19:00;;;;;;;4.47;4.07;;;31.70;57.10;;;;;;5101645;27;20346;-61
2020/12/01 12:21:31;;;;;;;6.38;4.25;;;31.70;57.30;;;;;;5099882;27;20228;-61
2020/12/01 12:24:02;;;;;;;5.13;4.70;;;31.70;57.30;;;;;;5101877;27;20230;-61
2020/12/01 12:26:34;;;;;;;5.80;4.88;;;31.60;57.40;;;;;;5105037;27;20223;-60
2020/12/01 12:29:05;;;;;;;5.10;4.70;;;31.60;57.50;;;;;;5108512;27;20231;-61
2020/12/01 12:31:35;;;;;;;5.30;4.80;;;31.60;57.50;;;;;;5104120;27;20236;-60
2020/12/01 12:34:06;;;;;;;5.65;5.15;;;31.50;57.60;;;;;;5102102;27;20227;-60
2020/12/01 12:36:37;;;;;;;5.82;5.18;;;31.50;57.80;;;;;;5103179;28;20648;-61
2020/12/01 12:39:07;;;;;;;6.82;5.88;;;31.50;58.00;;;;;;5100104;27;20239;-60
2020/12/01 12:41:39;;;;;;;7.00;5.65;;;31.40;58.10;;;;;;5103493;27;20613;-61
2020/12/01 12:44:10;;;;;;;6.35;5.43;;;31.40;58.20;;;;;;5105777;27;20270;-60
2020/12/01 12:46:40;;;;;;;5.15;4.75;;;31.40;58.30;;;;;;5104711;27;20227;-62
2020/12/01 12:49:11;;;;;;;5.40;4.90;;;31.30;58.50;;;;;;5102921;27;20221;-62
2020/12/01 12:51:42;;;;;;;7.93;5.45;;;31.30;58.60;;;;;;5103629;27;20234;-58
2020/12/01 12:54:12;;;;;;;5.63;5.03;;;31.20;58.60;;;;;;5104739;27;20234;-61
2020/12/01 12:56:44;;;;;;;6.82;5.03;;;31.20;58.70;;;;;;5107894;28;20748;-61
2020/12/01 12:59:15;;;;;;;5.93;5.32;;;31.20;58.80;;;;;;5104906;28;20268;-62
2020/12/01 13:01:45;;;;;;;7.57;5.95;;;31.20;58.90;;;;;;5101477;27;20257;-61
2020/12/01 13:04:15;;;;;;;7.43;5.18;;;31.10;58.90;;;;;;5106809;28;20671;-61
2020/12/01 13:06:46;;;;;;;5.57;5.07;;;31.10;59.10;;;;;;5096407;27;20227;-61
2020/12/01 13:09:17;;;;;;;5.60;5.10;;;31.10;59.20;;;;;;5104569;27;20253;-61
2020/12/01 13:11:48;;;;;;;6.75;5.60;;;31.10;59.20;;;;;;5097863;27;20224;-60
2020/12/01 13:14:19;;;;;;;6.45;5.72;;;31.00;59.20;;;;;;5104972;27;20235;-61
2020/12/01 13:16:49;;;;;;;6.18;5.57;;;31.00;59.40;;;;;;5100337;27;20243;-61
2020/12/01 13:19:20;;;;;;;6.20;5.32;;;31.00;59.30;;;;;;5107563;27;20227;-59
2020/12/01 13:21:51;;;;;;;5.82;5.32;;;31.00;59.40;;;;;;5100786;27;20324;-60
2020/12/01 13:24:21;;;;;;;5.88;5.15;;;30.90;59.40;;;;;;5100399;28;20232;-62
2020/12/01 13:26:57;;;;;;;6.20;5.70;;;30.90;59.40;;;;;;5100849;28;20282;-61
2020/12/01 13:29:31;;;;;;;7.47;5.55;;;30.90;59.40;;;;;;5105736;27;20755;-61
2020/12/01 13:32:01;;;;;;;9.90;5.57;;;30.80;59.40;;;;;;5099738;28;20743;-62
2020/12/01 13:34:32;;;;;;;6.25;5.65;;;30.80;59.40;;;;;;5104861;27;20227;-61
2020/12/01 13:37:02;;;;;;;6.40;5.80;;;30.80;59.40;;;;;;5100871;28;20232;-62
2020/12/01 13:39:33;;;;;;;6.10;5.50;;;30.80;59.40;;;;;;5093817;27;20764;-61
2020/12/01 13:42:05;;;;;;;6.95;5.30;;;30.80;59.40;;;;;;5104668;27;20221;-59
2020/12/01 13:44:35;;;;;;;7.18;5.07;;;30.70;59.40;;;;;;5094282;27;20331;-59
2020/12/01 13:47:06;;;;;;;6.25;5.28;;;30.70;59.40;;;;;;5098819;28;20231;-61
2020/12/01 13:49:36;;;;;;;6.60;5.90;;;30.70;59.40;;;;;;5102789;27;20247;-61
2020/12/01 13:52:07;;;;;;;5.70;5.20;;;30.70;59.50;;;;;;5099674;28;20235;-60
2020/12/01 13:54:38;;;;;;;5.70;5.10;;;30.60;59.40;;;;;;5098282;27;20236;-61
2020/12/01 13:57:10;;;;;;;6.00;5.35;;;30.60;59.40;;;;;;5112803;27;20236;-61
2020/12/01 13:59:40;;;;;;;5.10;4.60;;;30.60;59.50;;;;;;5099483;27;22127;-61